SYD weather

Sydney Kingsford Smith International Airport
Sydney, New South Wales, Australia

Public forecast

Using degrees Celsius for public forecast. Weather courtesy of forecast.io.

METAR (pilot weather report)

Retrieved 2018/08/17 05:30 UTC (35 minutes ago):

YSSY 170530Z 14008KT CAVOK 16/03 Q1012

TAF (pilot weather forecast)

Retrieved 2018/08/17 06:37 UTC (0 seconds ago):

TAF YSSY 170503Z 1706/1812 09008KT CAVOK FM171000 29008KT CAVOK FM180000 30020G30KT CAVOK FM180600 27020G30KT CAVOK FM181000 27015G25KT CAVOK